sensor_id;sensor_type;location;lat;lon;timestamp;temperature;humidity
23719;DHT22;43322;52.230;5.702;2023-03-01T00:00:44;-1.80;99.90
23719;DHT22;43322;52.230;5.702;2023-03-01T00:03:12;-1.80;99.90
23719;DHT22;43322;52.230;5.702;2023-03-01T00:05:44;-1.80;99.90
23719;DHT22;43322;52.230;5.702;2023-03-01T00:08:11;-1.80;99.90
23719;DHT22;43322;52.230;5.702;2023-03-01T00:10:39;-1.90;99.90
23719;DHT22;43322;52.230;5.702;2023-03-01T00:13:06;-1.90;99.90
23719;DHT22;43322;52.230;5.702;2023-03-01T00:15:32;-1.90;99.90
23719;DHT22;43322;52.230;5.702;2023-03-01T00:18:00;-1.90;99.90
23719;DHT22;43322;52.230;5.702;2023-03-01T00:20:27;-1.90;99.90
23719;DHT22;43322;52.230;5.702;2023-03-01T00:22:53;-1.90;99.90
23719;DHT22;43322;52.230;5.702;2023-03-01T00:25:20;-1.90;99.90
23719;DHT22;43322;52.230;5.702;2023-03-01T00:27:48;-1.90;99.90
23719;DHT22;43322;52.230;5.702;2023-03-01T00:30:15;-2.00;99.90
23719;DHT22;43322;52.230;5.702;2023-03-01T00:32:42;-1.90;99.90
23719;DHT22;43322;52.230;5.702;2023-03-01T00:35:09;-1.90;99.90
23719;DHT22;43322;52.230;5.702;2023-03-01T00:37:35;-2.00;99.90
23719;DHT22;43322;52.230;5.702;2023-03-01T00:40:03;-2.00;99.90
23719;DHT22;43322;52.230;5.702;2023-03-01T00:42:31;-1.10;99.90
23719;DHT22;43322;52.230;5.702;2023-03-01T00:44:59;-1.90;99.90
23719;DHT22;43322;52.230;5.702;2023-03-01T00:47:28;-1.90;99.90
23719;DHT22;43322;52.230;5.702;2023-03-01T00:49:55;-1.90;99.90
23719;DHT22;43322;52.230;5.702;2023-03-01T00:52:22;-1.90;99.90
23719;DHT22;43322;52.230;5.702;2023-03-01T00:54:51;-1.90;99.90
23719;DHT22;43322;52.230;5.702;2023-03-01T00:57:18;-1.90;99.90
23719;DHT22;43322;52.230;5.702;2023-03-01T00:59:45;-1.90;99.90
23719;DHT22;43322;52.230;5.702;2023-03-01T01:02:13;-1.90;99.90
23719;DHT22;43322;52.230;5.702;2023-03-01T01:04:39;-1.90;99.90
23719;DHT22;43322;52.230;5.702;2023-03-01T01:07:06;-1.90;99.90
23719;DHT22;43322;52.230;5.702;2023-03-01T01:09:33;-1.90;99.90
23719;DHT22;43322;52.230;5.702;2023-03-01T01:12:00;-1.90;99.90
23719;DHT22;43322;52.230;5.702;2023-03-01T01:14:26;-1.90;99.90
23719;DHT22;43322;52.230;5.702;2023-03-01T01:16:53;-1.90;99.90
23719;DHT22;43322;52.230;5.702;2023-03-01T01:19:22;-1.80;99.90
23719;DHT22;43322;52.230;5.702;2023-03-01T01:21:48;-1.80;99.90
23719;DHT22;43322;52.230;5.702;2023-03-01T01:24:16;-1.80;99.90
23719;DHT22;43322;52.230;5.702;2023-03-01T01:26:43;-1.80;99.90
23719;DHT22;43322;52.230;5.702;2023-03-01T01:29:10;-1.90;99.90
23719;DHT22;43322;52.230;5.702;2023-03-01T01:31:38;-1.90;99.90
23719;DHT22;43322;52.230;5.702;2023-03-01T01:34:07;-1.80;99.90
23719;DHT22;43322;52.230;5.702;2023-03-01T01:36:35;-1.80;99.90
23719;DHT22;43322;52.230;5.702;2023-03-01T01:39:02;-2.00;99.90
23719;DHT22;43322;52.230;5.702;2023-03-01T01:41:29;-2.00;99.90
23719;DHT22;43322;52.230;5.702;2023-03-01T01:44:12;-2.00;99.90
23719;DHT22;43322;52.230;5.702;2023-03-01T01:46:41;-2.00;99.90
23719;DHT22;43322;52.230;5.702;2023-03-01T01:52:18;-1.90;99.90
23719;DHT22;43322;52.230;5.702;2023-03-01T01:54:51;-2.00;99.90
23719;DHT22;43322;52.230;5.702;2023-03-01T01:57:23;-2.00;99.90
23719;DHT22;43322;52.230;5.702;2023-03-01T01:59:52;-2.00;99.90
23719;DHT22;43322;52.230;5.702;2023-03-01T02:02:21;-2.00;99.90
23719;DHT22;43322;52.230;5.702;2023-03-01T02:04:48;-2.00;99.90
23719;DHT22;43322;52.230;5.702;2023-03-01T02:07:19;-2.00;99.90
23719;DHT22;43322;52.230;5.702;2023-03-01T02:09:49;-2.00;99.90
23719;DHT22;43322;52.230;5.702;2023-03-01T02:12:18;-2.00;99.90
23719;DHT22;43322;52.230;5.702;2023-03-01T02:14:45;-2.00;99.90
23719;DHT22;43322;52.230;5.702;2023-03-01T02:17:14;-2.00;99.90
23719;DHT22;43322;52.230;5.702;2023-03-01T02:19:50;-2.00;99.90
23719;DHT22;43322;52.230;5.702;2023-03-01T02:22:23;-2.00;99.90
23719;DHT22;43322;52.230;5.702;2023-03-01T02:25:00;-1.90;99.90
23719;DHT22;43322;52.230;5.702;2023-03-01T02:27:42;-1.90;99.90
23719;DHT22;43322;52.230;5.702;2023-03-01T02:30:12;-1.90;99.90
23719;DHT22;43322;52.230;5.702;2023-03-01T02:32:40;-2.00;99.90
23719;DHT22;43322;52.230;5.702;2023-03-01T02:35:08;-1.90;99.90
23719;DHT22;43322;52.230;5.702;2023-03-01T02:37:35;-1.90;99.90
23719;DHT22;43322;52.230;5.702;2023-03-01T02:40:07;-1.90;99.90
23719;DHT22;43322;52.230;5.702;2023-03-01T02:42:43;-1.90;99.90
23719;DHT22;43322;52.230;5.702;2023-03-01T02:45:13;-2.00;99.90
23719;DHT22;43322;52.230;5.702;2023-03-01T02:47:40;-2.00;99.90
23719;DHT22;43322;52.230;5.702;2023-03-01T02:50:18;-2.00;99.90
23719;DHT22;43322;52.230;5.702;2023-03-01T02:52:48;-2.00;99.90
23719;DHT22;43322;52.230;5.702;2023-03-01T02:55:22;-2.00;99.90
23719;DHT22;43322;52.230;5.702;2023-03-01T02:57:49;-2.00;99.90
23719;DHT22;43322;52.230;5.702;2023-03-01T03:00:21;-2.10;99.90
23719;DHT22;43322;52.230;5.702;2023-03-01T03:02:52;-2.10;99.90
23719;DHT22;43322;52.230;5.702;2023-03-01T03:05:21;-2.10;99.90
23719;DHT22;43322;52.230;5.702;2023-03-01T03:07:49;-2.20;99.90
23719;DHT22;43322;52.230;5.702;2023-03-01T03:10:19;-2.20;99.90
23719;DHT22;43322;52.230;5.702;2023-03-01T03:12:49;-2.20;99.90
23719;DHT22;43322;52.230;5.702;2023-03-01T03:15:18;-2.30;99.90
23719;DHT22;43322;52.230;5.702;2023-03-01T03:17:46;-2.20;99.90
23719;DHT22;43322;52.230;5.702;2023-03-01T03:20:16;-2.30;99.90
23719;DHT22;43322;52.230;5.702;2023-03-01T03:22:45;-2.30;99.90
23719;DHT22;43322;52.230;5.702;2023-03-01T03:25:12;-2.30;99.90
23719;DHT22;43322;52.230;5.702;2023-03-01T03:27:40;-2.40;99.90
23719;DHT22;43322;52.230;5.702;2023-03-01T03:30:09;-2.40;99.90
23719;DHT22;43322;52.230;5.702;2023-03-01T03:32:39;-2.40;99.90
23719;DHT22;43322;52.230;5.702;2023-03-01T03:35:08;-2.40;99.90
23719;DHT22;43322;52.230;5.702;2023-03-01T03:37:36;-2.40;99.90
23719;DHT22;43322;52.230;5.702;2023-03-01T03:40:17;-2.50;99.90
23719;DHT22;43322;52.230;5.702;2023-03-01T03:42:43;-2.50;99.90
23719;DHT22;43322;52.230;5.702;2023-03-01T03:45:10;-2.60;99.90
23719;DHT22;43322;52.230;5.702;2023-03-01T03:47:38;-2.60;99.90
23719;DHT22;43322;52.230;5.702;2023-03-01T03:50:05;-2.50;99.90
23719;DHT22;43322;52.230;5.702;2023-03-01T03:52:32;-2.50;99.90
23719;DHT22;43322;52.230;5.702;2023-03-01T03:54:59;-2.60;99.90
23719;DHT22;43322;52.230;5.702;2023-03-01T03:57:26;-2.60;99.90
23719;DHT22;43322;52.230;5.702;2023-03-01T03:59:52;-2.70;99.90
23719;DHT22;43322;52.230;5.702;2023-03-01T04:02:19;-2.70;99.90
23719;DHT22;43322;52.230;5.702;2023-03-01T04:04:49;-2.70;99.90
23719;DHT22;43322;52.230;5.702;2023-03-01T04:07:15;-2.80;99.90
23719;DHT22;43322;52.230;5.702;2023-03-01T04:09:42;-2.70;99.90
23719;DHT22;43322;52.230;5.702;2023-03-01T04:12:09;-2.70;99.90
23719;DHT22;43322;52.230;5.702;2023-03-01T04:14:36;-2.80;99.90
23719;DHT22;43322;52.230;5.702;2023-03-01T04:17:03;-2.90;99.90
23719;DHT22;43322;52.230;5.702;2023-03-01T04:19:31;-2.90;99.90
23719;DHT22;43322;52.230;5.702;2023-03-01T04:22:02;-2.90;99.90
23719;DHT22;43322;52.230;5.702;2023-03-01T04:24:34;-2.90;99.90
23719;DHT22;43322;52.230;5.702;2023-03-01T04:27:02;-3.20;99.90
23719;DHT22;43322;52.230;5.702;2023-03-01T04:29:28;-2.50;99.90
23719;DHT22;43322;52.230;5.702;2023-03-01T04:31:55;-3.00;99.90
23719;DHT22;43322;52.230;5.702;2023-03-01T04:34:22;-3.00;99.90
23719;DHT22;43322;52.230;5.702;2023-03-01T04:36:49;-3.10;99.90
23719;DHT22;43322;52.230;5.702;2023-03-01T04:39:17;-3.10;99.90
23719;DHT22;43322;52.230;5.702;2023-03-01T04:41:43;-3.10;99.90
23719;DHT22;43322;52.230;5.702;2023-03-01T04:44:10;-3.10;99.90
23719;DHT22;43322;52.230;5.702;2023-03-01T04:46:38;-3.20;99.90
23719;DHT22;43322;52.230;5.702;2023-03-01T04:49:05;-3.10;99.90
23719;DHT22;43322;52.230;5.702;2023-03-01T04:51:32;-3.10;99.90
23719;DHT22;43322;52.230;5.702;2023-03-01T04:53:58;-3.10;99.90
23719;DHT22;43322;52.230;5.702;2023-03-01T04:56:27;-3.20;99.90
23719;DHT22;43322;52.230;5.702;2023-03-01T04:58:54;-3.20;99.90
23719;DHT22;43322;52.230;5.702;2023-03-01T05:01:21;-3.20;99.90
23719;DHT22;43322;52.230;5.702;2023-03-01T05:03:49;-3.30;99.90
23719;DHT22;43322;52.230;5.702;2023-03-01T05:06:18;-3.40;99.90
23719;DHT22;43322;52.230;5.702;2023-03-01T05:08:45;-3.30;99.90
23719;DHT22;43322;52.230;5.702;2023-03-01T05:11:11;-3.30;99.90
23719;DHT22;43322;52.230;5.702;2023-03-01T05:13:40;-3.30;99.90
23719;DHT22;43322;52.230;5.702;2023-03-01T05:16:08;-3.40;99.90
23719;DHT22;43322;52.230;5.702;2023-03-01T05:18:37;-3.40;99.90
23719;DHT22;43322;52.230;5.702;2023-03-01T05:21:06;-3.50;99.90
23719;DHT22;43322;52.230;5.702;2023-03-01T05:23:33;-3.50;99.90
23719;DHT22;43322;52.230;5.702;2023-03-01T05:26:02;-3.50;99.90
23719;DHT22;43322;52.230;5.702;2023-03-01T05:28:30;-3.50;99.90
23719;DHT22;43322;52.230;5.702;2023-03-01T05:30:58;-3.50;99.90
23719;DHT22;43322;52.230;5.702;2023-03-01T05:33:25;-3.50;99.90
23719;DHT22;43322;52.230;5.702;2023-03-01T05:35:53;-3.60;99.90
23719;DHT22;43322;52.230;5.702;2023-03-01T05:38:20;-3.50;99.90
23719;DHT22;43322;52.230;5.702;2023-03-01T05:40:48;-3.60;99.90
23719;DHT22;43322;52.230;5.702;2023-03-01T05:43:16;-3.50;99.90
23719;DHT22;43322;52.230;5.702;2023-03-01T05:45:43;-3.60;99.90
23719;DHT22;43322;52.230;5.702;2023-03-01T05:48:12;-3.60;99.90
23719;DHT22;43322;52.230;5.702;2023-03-01T05:50:41;-3.60;99.90
23719;DHT22;43322;52.230;5.702;2023-03-01T05:53:10;-3.60;99.90
23719;DHT22;43322;52.230;5.702;2023-03-01T05:55:38;-3.50;99.90
23719;DHT22;43322;52.230;5.702;2023-03-01T05:58:07;-3.50;99.90
23719;DHT22;43322;52.230;5.702;2023-03-01T06:00:35;-3.50;99.90
23719;DHT22;43322;52.230;5.702;2023-03-01T06:03:03;-3.60;99.90
23719;DHT22;43322;52.230;5.702;2023-03-01T06:05:31;-3.60;99.90
23719;DHT22;43322;52.230;5.702;2023-03-01T06:07:59;-3.70;99.90
23719;DHT22;43322;52.230;5.702;2023-03-01T06:10:26;-3.70;99.90
23719;DHT22;43322;52.230;5.702;2023-03-01T06:12:53;-3.60;99.90
23719;DHT22;43322;52.230;5.702;2023-03-01T06:15:20;-3.70;99.90
23719;DHT22;43322;52.230;5.702;2023-03-01T06:17:47;-3.70;99.90
23719;DHT22;43322;52.230;5.702;2023-03-01T06:20:20;-3.80;99.90
23719;DHT22;43322;52.230;5.702;2023-03-01T06:22:48;-3.70;99.90
23719;DHT22;43322;52.230;5.702;2023-03-01T06:25:17;-3.70;99.90
23719;DHT22;43322;52.230;5.702;2023-03-01T06:27:45;-3.70;99.90
23719;DHT22;43322;52.230;5.702;2023-03-01T06:30:13;-3.70;99.90
23719;DHT22;43322;52.230;5.702;2023-03-01T06:32:40;-3.80;99.90
23719;DHT22;43322;52.230;5.702;2023-03-01T06:35:08;-3.80;99.90
23719;DHT22;43322;52.230;5.702;2023-03-01T06:37:36;-3.70;99.90
23719;DHT22;43322;52.230;5.702;2023-03-01T06:40:05;-3.70;99.90
23719;DHT22;43322;52.230;5.702;2023-03-01T06:42:33;-3.70;99.90
23719;DHT22;43322;52.230;5.702;2023-03-01T06:45:00;-3.70;99.90
23719;DHT22;43322;52.230;5.702;2023-03-01T06:47:27;-3.70;99.90
23719;DHT22;43322;52.230;5.702;2023-03-01T06:49:53;-3.70;99.90
23719;DHT22;43322;52.230;5.702;2023-03-01T06:52:20;-3.10;99.90
23719;DHT22;43322;52.230;5.702;2023-03-01T06:54:47;-3.70;99.90
23719;DHT22;43322;52.230;5.702;2023-03-01T06:57:15;-3.60;99.90
23719;DHT22;43322;52.230;5.702;2023-03-01T06:59:42;-3.60;99.90
23719;DHT22;43322;52.230;5.702;2023-03-01T07:02:10;-3.60;99.90
23719;DHT22;43322;52.230;5.702;2023-03-01T07:04:37;-3.60;99.90
23719;DHT22;43322;52.230;5.702;2023-03-01T07:07:04;-3.50;99.90
23719;DHT22;43322;52.230;5.702;2023-03-01T07:09:31;-3.50;99.90
23719;DHT22;43322;52.230;5.702;2023-03-01T07:11:58;-3.40;99.90
23719;DHT22;43322;52.230;5.702;2023-03-01T07:14:26;-3.40;99.90
23719;DHT22;43322;52.230;5.702;2023-03-01T07:16:53;-3.30;99.90
23719;DHT22;43322;52.230;5.702;2023-03-01T07:19:20;-3.20;99.90
23719;DHT22;43322;52.230;5.702;2023-03-01T07:21:47;-3.00;99.90
23719;DHT22;43322;52.230;5.702;2023-03-01T07:24:14;-2.80;99.90
23719;DHT22;43322;52.230;5.702;2023-03-01T07:26:41;-2.30;99.90
23719;DHT22;43322;52.230;5.702;2023-03-01T07:29:09;-1.90;99.90
23719;DHT22;43322;52.230;5.702;2023-03-01T07:31:38;-1.70;99.90
23719;DHT22;43322;52.230;5.702;2023-03-01T07:34:05;-1.70;99.90
23719;DHT22;43322;52.230;5.702;2023-03-01T07:36:31;-1.60;99.90
23719;DHT22;43322;52.230;5.702;2023-03-01T07:38:58;-1.20;99.90
23719;DHT22;43322;52.230;5.702;2023-03-01T07:41:27;-0.90;99.90
23719;DHT22;43322;52.230;5.702;2023-03-01T07:43:54;-0.60;99.90
23719;DHT22;43322;52.230;5.702;2023-03-01T07:46:21;-0.20;99.90
23719;DHT22;43322;52.230;5.702;2023-03-01T07:48:49;0.40;99.90
23719;DHT22;43322;52.230;5.702;2023-03-01T07:51:16;1.50;99.90
23719;DHT22;43322;52.230;5.702;2023-03-01T07:53:45;2.80;99.90
23719;DHT22;43322;52.230;5.702;2023-03-01T07:56:13;4.20;99.90
23719;DHT22;43322;52.230;5.702;2023-03-01T07:58:43;5.30;99.90
23719;DHT22;43322;52.230;5.702;2023-03-01T08:01:11;6.40;99.90
23719;DHT22;43322;52.230;5.702;2023-03-01T08:03:38;6.60;99.90
23719;DHT22;43322;52.230;5.702;2023-03-01T08:06:08;6.50;99.90
23719;DHT22;43322;52.230;5.702;2023-03-01T08:08:35;6.40;99.90
23719;DHT22;43322;52.230;5.702;2023-03-01T08:11:04;6.30;99.90
23719;DHT22;43322;52.230;5.702;2023-03-01T08:13:32;5.70;99.90
23719;DHT22;43322;52.230;5.702;2023-03-01T08:16:01;5.90;99.90
23719;DHT22;43322;52.230;5.702;2023-03-01T08:18:28;6.60;99.90
23719;DHT22;43322;52.230;5.702;2023-03-01T08:20:54;6.60;99.90
23719;DHT22;43322;52.230;5.702;2023-03-01T08:23:23;6.50;99.90
23719;DHT22;43322;52.230;5.702;2023-03-01T08:25:51;6.50;99.90
23719;DHT22;43322;52.230;5.702;2023-03-01T08:28:18;5.90;99.90
23719;DHT22;43322;52.230;5.702;2023-03-01T08:30:45;5.70;99.90
23719;DHT22;43322;52.230;5.702;2023-03-01T08:33:12;6.00;99.90
23719;DHT22;43322;52.230;5.702;2023-03-01T08:35:38;6.20;99.90
23719;DHT22;43322;52.230;5.702;2023-03-01T08:38:05;6.10;99.90
23719;DHT22;43322;52.230;5.702;2023-03-01T08:40:34;5.60;99.90
23719;DHT22;43322;52.230;5.702;2023-03-01T08:43:00;4.90;99.90
23719;DHT22;43322;52.230;5.702;2023-03-01T08:45:27;4.60;99.90
23719;DHT22;43322;52.230;5.702;2023-03-01T08:47:54;4.40;99.90
23719;DHT22;43322;52.230;5.702;2023-03-01T08:50:21;4.30;99.90
23719;DHT22;43322;52.230;5.702;2023-03-01T08:52:49;4.70;99.90
23719;DHT22;43322;52.230;5.702;2023-03-01T08:55:17;5.20;99.90
23719;DHT22;43322;52.230;5.702;2023-03-01T08:57:45;5.80;99.90
23719;DHT22;43322;52.230;5.702;2023-03-01T09:00:13;6.00;99.90
23719;DHT22;43322;52.230;5.702;2023-03-01T09:02:41;6.80;99.90
23719;DHT22;43322;52.230;5.702;2023-03-01T09:05:08;7.50;99.90
23719;DHT22;43322;52.230;5.702;2023-03-01T09:07:35;7.80;99.90
23719;DHT22;43322;52.230;5.702;2023-03-01T09:10:02;8.30;99.90
23719;DHT22;43322;52.230;5.702;2023-03-01T09:12:29;8.80;99.90
23719;DHT22;43322;52.230;5.702;2023-03-01T09:14:57;9.30;99.90
23719;DHT22;43322;52.230;5.702;2023-03-01T09:17:24;9.60;99.90
23719;DHT22;43322;52.230;5.702;2023-03-01T09:19:51;9.60;99.90
23719;DHT22;43322;52.230;5.702;2023-03-01T09:22:18;9.30;99.90
23719;DHT22;43322;52.230;5.702;2023-03-01T09:24:45;8.80;99.90
23719;DHT22;43322;52.230;5.702;2023-03-01T09:27:12;7.90;99.90
23719;DHT22;43322;52.230;5.702;2023-03-01T09:29:40;7.60;99.90
23719;DHT22;43322;52.230;5.702;2023-03-01T09:32:08;7.40;99.90
23719;DHT22;43322;52.230;5.702;2023-03-01T09:34:35;6.50;99.90
23719;DHT22;43322;52.230;5.702;2023-03-01T09:37:22;5.60;99.90
23719;DHT22;43322;52.230;5.702;2023-03-01T09:39:49;5.10;99.90
23719;DHT22;43322;52.230;5.702;2023-03-01T09:42:16;4.80;99.90
23719;DHT22;43322;52.230;5.702;2023-03-01T09:44:47;4.70;99.90
23719;DHT22;43322;52.230;5.702;2023-03-01T09:47:19;4.70;99.90
23719;DHT22;43322;52.230;5.702;2023-03-01T09:49:57;4.80;99.90
23719;DHT22;43322;52.230;5.702;2023-03-01T09:52:30;4.70;99.90
23719;DHT22;43322;52.230;5.702;2023-03-01T09:55:00;4.70;99.90
23719;DHT22;43322;52.230;5.702;2023-03-01T09:57:32;5.00;99.90
23719;DHT22;43322;52.230;5.702;2023-03-01T10:00:19;5.30;99.90
23719;DHT22;43322;52.230;5.702;2023-03-01T10:02:51;5.40;99.90
23719;DHT22;43322;52.230;5.702;2023-03-01T10:05:33;5.70;99.90
23719;DHT22;43322;52.230;5.702;2023-03-01T10:08:13;6.00;99.90
23719;DHT22;43322;52.230;5.702;2023-03-01T10:10:47;5.80;99.90
23719;DHT22;43322;52.230;5.702;2023-03-01T10:13:17;5.90;99.90
23719;DHT22;43322;52.230;5.702;2023-03-01T10:15:50;6.10;99.90
23719;DHT22;43322;52.230;5.702;2023-03-01T10:18:24;6.60;99.90
23719;DHT22;43322;52.230;5.702;2023-03-01T10:20:54;7.80;99.90
23719;DHT22;43322;52.230;5.702;2023-03-01T10:23:23;6.40;99.90
23719;DHT22;43322;52.230;5.702;2023-03-01T10:26:12;6.60;99.90
23719;DHT22;43322;52.230;5.702;2023-03-01T10:28:52;7.60;99.90
23719;DHT22;43322;52.230;5.702;2023-03-01T10:31:24;8.60;99.90
23719;DHT22;43322;52.230;5.702;2023-03-01T10:33:55;8.00;99.90
23719;DHT22;43322;52.230;5.702;2023-03-01T10:36:23;8.30;99.90
23719;DHT22;43322;52.230;5.702;2023-03-01T10:38:53;8.10;99.90
23719;DHT22;43322;52.230;5.702;2023-03-01T10:41:21;7.50;99.90
23719;DHT22;43322;52.230;5.702;2023-03-01T10:43:51;7.10;99.90
23719;DHT22;43322;52.230;5.702;2023-03-01T10:46:28;6.90;99.90
23719;DHT22;43322;52.230;5.702;2023-03-01T10:49:14;6.80;99.90
23719;DHT22;43322;52.230;5.702;2023-03-01T10:51:43;6.70;99.90
23719;DHT22;43322;52.230;5.702;2023-03-01T10:54:17;6.50;99.90
23719;DHT22;43322;52.230;5.702;2023-03-01T10:56:49;6.40;99.90
23719;DHT22;43322;52.230;5.702;2023-03-01T10:59:26;6.60;99.90
23719;DHT22;43322;52.230;5.702;2023-03-01T11:02:13;6.80;99.90
23719;DHT22;43322;52.230;5.702;2023-03-01T11:04:57;6.90;99.90
23719;DHT22;43322;52.230;5.702;2023-03-01T11:07:24;6.70;99.90
23719;DHT22;43322;52.230;5.702;2023-03-01T11:09:51;7.00;99.90
23719;DHT22;43322;52.230;5.702;2023-03-01T11:12:18;7.40;99.90
23719;DHT22;43322;52.230;5.702;2023-03-01T11:14:50;7.70;99.90
23719;DHT22;43322;52.230;5.702;2023-03-01T11:17:28;8.10;99.90
23719;DHT22;43322;52.230;5.702;2023-03-01T11:20:09;8.50;99.90
23719;DHT22;43322;52.230;5.702;2023-03-01T11:22:45;8.70;99.90
23719;DHT22;43322;52.230;5.702;2023-03-01T11:25:13;9.10;99.90
23719;DHT22;43322;52.230;5.702;2023-03-01T11:27:43;9.70;97.40
23719;DHT22;43322;52.230;5.702;2023-03-01T11:30:18;10.20;93.30
23719;DHT22;43322;52.230;5.702;2023-03-01T11:32:53;10.90;92.70
23719;DHT22;43322;52.230;5.702;2023-03-01T11:35:24;11.60;87.70
23719;DHT22;43322;52.230;5.702;2023-03-01T11:37:59;11.90;89.60
23719;DHT22;43322;52.230;5.702;2023-03-01T11:40:32;12.10;78.20
23719;DHT22;43322;52.230;5.702;2023-03-01T11:43:09;12.80;81.10
23719;DHT22;43322;52.230;5.702;2023-03-01T11:45:52;13.00;76.40
23719;DHT22;43322;52.230;5.702;2023-03-01T11:48:37;12.80;71.60
23719;DHT22;43322;52.230;5.702;2023-03-01T11:51:15;12.70;70.10
23719;DHT22;43322;52.230;5.702;2023-03-01T11:53:57;12.70;71.90
23719;DHT22;43322;52.230;5.702;2023-03-01T11:56:31;13.10;74.60
23719;DHT22;43322;52.230;5.702;2023-03-01T11:59:18;12.90;66.40
23719;DHT22;43322;52.230;5.702;2023-03-01T12:01:58;13.40;70.80
23719;DHT22;43322;52.230;5.702;2023-03-01T12:04:44;13.30;63.10
23719;DHT22;43322;52.230;5.702;2023-03-01T12:07:19;13.40;64.20
23719;DHT22;43322;52.230;5.702;2023-03-01T12:09:59;13.40;61.90
23719;DHT22;43322;52.230;5.702;2023-03-01T12:12:33;13.70;64.30
23719;DHT22;43322;52.230;5.702;2023-03-01T12:18:07;13.60;61.60
23719;DHT22;43322;52.230;5.702;2023-03-01T12:20:42;13.80;65.70
23719;DHT22;43322;52.230;5.702;2023-03-01T12:26:29;13.90;68.00
23719;DHT22;43322;52.230;5.702;2023-03-01T12:29:10;14.00;60.10
23719;DHT22;43322;52.230;5.702;2023-03-01T12:34:42;13.90;64.80
23719;DHT22;43322;52.230;5.702;2023-03-01T12:37:22;13.40;57.80
23719;DHT22;43322;52.230;5.702;2023-03-01T12:40:01;13.20;63.70
23719;DHT22;43322;52.230;5.702;2023-03-01T12:42:39;13.30;63.70
23719;DHT22;43322;52.230;5.702;2023-03-01T12:45:30;13.70;62.50
23719;DHT22;43322;52.230;5.702;2023-03-01T12:48:13;13.90;61.50
23719;DHT22;43322;52.230;5.702;2023-03-01T12:50:47;13.80;66.90
23719;DHT22;43322;52.230;5.702;2023-03-01T12:53:22;13.80;59.60
23719;DHT22;43322;52.230;5.702;2023-03-01T12:55:51;13.70;64.80
23719;DHT22;43322;52.230;5.702;2023-03-01T12:58:25;13.40;60.20
23719;DHT22;43322;52.230;5.702;2023-03-01T13:01:04;13.70;62.40
23719;DHT22;43322;52.230;5.702;2023-03-01T13:03:38;13.80;59.10
23719;DHT22;43322;52.230;5.702;2023-03-01T13:06:13;13.60;61.60
23719;DHT22;43322;52.230;5.702;2023-03-01T13:08:46;13.20;59.70
23719;DHT22;43322;52.230;5.702;2023-03-01T13:11:17;13.60;63.30
23719;DHT22;43322;52.230;5.702;2023-03-01T13:13:46;13.50;57.60
23719;DHT22;43322;52.230;5.702;2023-03-01T13:19:08;13.50;59.50
23719;DHT22;43322;52.230;5.702;2023-03-01T13:21:36;13.40;58.80
23719;DHT22;43322;52.230;5.702;2023-03-01T13:24:03;12.90;55.70
23719;DHT22;43322;52.230;5.702;2023-03-01T13:26:30;12.90;60.90
23719;DHT22;43322;52.230;5.702;2023-03-01T13:28:58;12.90;58.90
23719;DHT22;43322;52.230;5.702;2023-03-01T13:34:52;12.60;57.40
23719;DHT22;43322;52.230;5.702;2023-03-01T13:37:37;12.40;57.60
23719;DHT22;43322;52.230;5.702;2023-03-01T13:43:30;12.00;63.10
23719;DHT22;43322;52.230;5.702;2023-03-01T13:46:00;12.10;61.30
23719;DHT22;43322;52.230;5.702;2023-03-01T13:48:30;11.80;59.60
23719;DHT22;43322;52.230;5.702;2023-03-01T13:50:59;11.70;60.20
23719;DHT22;43322;52.230;5.702;2023-03-01T13:53:30;11.50;59.90
23719;DHT22;43322;52.230;5.702;2023-03-01T13:56:00;11.40;63.50
23719;DHT22;43322;52.230;5.702;2023-03-01T13:58:29;11.10;61.30
23719;DHT22;43322;52.230;5.702;2023-03-01T14:01:00;11.00;63.30
23719;DHT22;43322;52.230;5.702;2023-03-01T14:03:28;10.60;63.30
23719;DHT22;43322;52.230;5.702;2023-03-01T14:06:01;10.40;68.40
23719;DHT22;43322;52.230;5.702;2023-03-01T14:08:30;10.40;69.00
23719;DHT22;43322;52.230;5.702;2023-03-01T14:11:22;10.80;72.30
23719;DHT22;43322;52.230;5.702;2023-03-01T14:14:02;10.10;71.10
23719;DHT22;43322;52.230;5.702;2023-03-01T14:16:41;9.40;72.00
23719;DHT22;43322;52.230;5.702;2023-03-01T14:19:16;9.00;73.20
23719;DHT22;43322;52.230;5.702;2023-03-01T14:21:44;8.80;75.50
23719;DHT22;43322;52.230;5.702;2023-03-01T14:24:20;8.80;80.80
23719;DHT22;43322;52.230;5.702;2023-03-01T14:26:49;8.40;77.10
23719;DHT22;43322;52.230;5.702;2023-03-01T14:29:26;8.20;81.10
23719;DHT22;43322;52.230;5.702;2023-03-01T14:31:55;8.00;86.90
23719;DHT22;43322;52.230;5.702;2023-03-01T14:34:23;8.30;85.10
23719;DHT22;43322;52.230;5.702;2023-03-01T14:36:50;8.00;85.00
23719;DHT22;43322;52.230;5.702;2023-03-01T14:39:19;7.90;91.30
23719;DHT22;43322;52.230;5.702;2023-03-01T14:41:47;7.70;91.50
23719;DHT22;43322;52.230;5.702;2023-03-01T14:44:17;7.60;91.80
23719;DHT22;43322;52.230;5.702;2023-03-01T14:46:52;7.60;92.60
23719;DHT22;43322;52.230;5.702;2023-03-01T14:49:23;7.80;92.40
23719;DHT22;43322;52.230;5.702;2023-03-01T14:51:53;7.90;92.80
23719;DHT22;43322;52.230;5.702;2023-03-01T14:54:24;7.80;92.90
23719;DHT22;43322;52.230;5.702;2023-03-01T14:56:52;8.30;91.80
23719;DHT22;43322;52.230;5.702;2023-03-01T14:59:22;7.70;92.30
23719;DHT22;43322;52.230;5.702;2023-03-01T15:01:51;7.80;92.30
23719;DHT22;43322;52.230;5.702;2023-03-01T15:04:20;7.80;91.90
23719;DHT22;43322;52.230;5.702;2023-03-01T15:06:51;7.80;91.90
23719;DHT22;43322;52.230;5.702;2023-03-01T15:09:19;8.20;91.40
23719;DHT22;43322;52.230;5.702;2023-03-01T15:11:46;8.10;91.50
23719;DHT22;43322;52.230;5.702;2023-03-01T15:14:27;8.20;92.60
23719;DHT22;43322;52.230;5.702;2023-03-01T15:16:55;8.20;90.80
23719;DHT22;43322;52.230;5.702;2023-03-01T15:19:24;8.40;91.90
23719;DHT22;43322;52.230;5.702;2023-03-01T15:21:52;8.70;91.40
23719;DHT22;43322;52.230;5.702;2023-03-01T15:24:23;8.70;85.10
23719;DHT22;43322;52.230;5.702;2023-03-01T15:26:52;8.70;90.20
23719;DHT22;43322;52.230;5.702;2023-03-01T15:29:24;8.90;89.20
23719;DHT22;43322;52.230;5.702;2023-03-01T15:31:57;9.00;87.80
23719;DHT22;43322;52.230;5.702;2023-03-01T15:34:28;8.90;86.60
23719;DHT22;43322;52.230;5.702;2023-03-01T15:36:56;8.90;86.80
23719;DHT22;43322;52.230;5.702;2023-03-01T15:39:33;8.80;87.30
23719;DHT22;43322;52.230;5.702;2023-03-01T15:42:03;8.70;87.10
23719;DHT22;43322;52.230;5.702;2023-03-01T15:44:32;8.70;86.90
23719;DHT22;43322;52.230;5.702;2023-03-01T15:47:00;8.30;90.70
23719;DHT22;43322;52.230;5.702;2023-03-01T15:49:43;7.90;88.90
23719;DHT22;43322;52.230;5.702;2023-03-01T15:52:14;7.60;91.10
23719;DHT22;43322;52.230;5.702;2023-03-01T15:54:42;7.20;92.40
23719;DHT22;43322;52.230;5.702;2023-03-01T15:57:12;7.10;93.20
23719;DHT22;43322;52.230;5.702;2023-03-01T15:59:40;7.00;93.80
23719;DHT22;43322;52.230;5.702;2023-03-01T16:02:09;6.70;95.10
23719;DHT22;43322;52.230;5.702;2023-03-01T16:04:36;6.80;95.60
23719;DHT22;43322;52.230;5.702;2023-03-01T16:07:05;6.60;94.80
23719;DHT22;43322;52.230;5.702;2023-03-01T16:09:32;6.90;93.50
23719;DHT22;43322;52.230;5.702;2023-03-01T16:11:59;6.50;94.50
23719;DHT22;43322;52.230;5.702;2023-03-01T16:14:27;6.20;95.60
23719;DHT22;43322;52.230;5.702;2023-03-01T16:16:54;6.10;97.00